Time;durP1;ratioP1;P1;durP2;ratioP2;P2;SDS_P1;SDS_P2;PMS_P1;PMS_P2;Temp;Humidity;BMP_temperature;BMP_pressure;BME280_temperature;BME280_humidity;BME280_pressure;Samples;Min_cycle;Max_cycle;Signal;HPM_P1;HPM_P2
2021/04/02 00:02:17;;;;;;;16.92;7.75;;;14.70;73.70;;;;;;5015104;28;20084;-75
2021/04/02 00:04:43;;;;;;;13.00;6.97;;;14.50;74.20;;;;;;5018995;28;20061;-76
2021/04/02 00:07:08;;;;;;;11.77;7.03;;;14.40;74.90;;;;;;5016545;28;20041;-77
2021/04/02 00:09:34;;;;;;;18.48;7.63;;;14.40;75.60;;;;;;5020570;28;20029;-75
2021/04/02 00:12:00;;;;;;;17.92;8.02;;;14.20;76.00;;;;;;5011885;28;20136;-75
2021/04/02 00:14:26;;;;;;;12.82;7.28;;;14.10;76.70;;;;;;5017267;28;20185;-76
2021/04/02 00:16:52;;;;;;;13.25;7.43;;;14.10;77.30;;;;;;5019322;28;20112;-75
2021/04/02 00:19:17;;;;;;;12.35;6.80;;;14.00;77.70;;;;;;5019662;28;20041;-75
2021/04/02 00:21:45;;;;;;;14.73;7.05;;;13.90;77.60;;;;;;5020358;28;20491;-77
2021/04/02 00:24:11;;;;;;;12.30;6.57;;;13.90;77.50;;;;;;5031522;28;20029;-76
2021/04/02 00:26:37;;;;;;;11.75;6.80;;;13.90;78.10;;;;;;5025848;28;20060;-74
2021/04/02 00:29:03;;;;;;;15.27;7.03;;;13.80;78.40;;;;;;5004914;28;20029;-75
2021/04/02 00:31:28;;;;;;;12.25;6.38;;;13.80;78.30;;;;;;5015375;28;20041;-75
2021/04/02 00:33:57;;;;;;;16.10;6.88;;;13.90;79.00;;;;;;5020631;28;20021;-77
2021/04/02 00:36:22;;;;;;;16.35;7.00;;;13.70;79.30;;;;;;5016362;28;20439;-76
2021/04/02 00:38:48;;;;;;;11.55;6.90;;;13.60;79.40;;;;;;5013047;28;20109;-77
2021/04/02 00:41:17;;;;;;;10.57;6.28;;;13.60;79.80;;;;;;5021947;28;20053;-76
2021/04/02 00:43:50;;;;;;;9.68;6.10;;;13.40;80.20;;;;;;5032933;28;20022;-76
2021/04/02 00:46:18;;;;;;;12.45;6.65;;;13.50;80.20;;;;;;5013935;28;20372;-75
2021/04/02 00:48:45;;;;;;;13.00;6.15;;;13.50;80.20;;;;;;5018523;28;20045;-75
2021/04/02 00:51:21;;;;;;;13.05;6.75;;;13.40;80.30;;;;;;5014938;28;20029;-76
2021/04/02 00:53:47;;;;;;;11.15;6.47;;;13.40;80.70;;;;;;5022211;28;20427;-75
2021/04/02 00:56:14;;;;;;;13.27;6.53;;;13.30;81.00;;;;;;5015788;28;20065;-76
2021/04/02 00:58:41;;;;;;;12.88;6.25;;;13.20;81.10;;;;;;5014847;28;20022;-76
2021/04/02 01:01:09;;;;;;;18.63;8.80;;;13.40;81.70;;;;;;5015697;28;20041;-76
2021/04/02 01:03:36;;;;;;;14.13;6.72;;;13.20;81.60;;;;;;5014191;28;20026;-76
2021/04/02 01:06:09;;;;;;;13.55;6.55;;;13.20;81.40;;;;;;5019587;28;20045;-75
2021/04/02 01:08:36;;;;;;;12.98;6.20;;;14.00;82.00;;;;;;5017995;28;20372;-75
2021/04/02 01:11:04;;;;;;;8.32;5.93;;;13.10;81.80;;;;;;5020775;28;20501;-75
2021/04/02 01:13:44;;;;;;;13.93;6.20;;;13.00;82.30;;;;;;5018726;28;20434;-75
2021/04/02 01:16:17;;;;;;;17.27;8.73;;;13.00;82.30;;;;;;5022516;28;20045;-77
2021/04/02 01:19:16;;;;;;;13.40;7.03;;;13.00;82.50;;;;;;5034752;28;20087;-78
2021/04/02 01:21:50;;;;;;;11.85;6.25;;;12.90;82.60;;;;;;5032495;28;20041;-77
2021/04/02 01:24:21;;;;;;;18.83;7.70;;;12.90;82.80;;;;;;5022933;28;20033;-76
2021/04/02 01:27:08;;;;;;;13.00;6.57;;;12.80;82.80;;;;;;5023315;28;20532;-77
2021/04/02 01:30:02;;;;;;;11.65;6.15;;;12.80;82.80;;;;;;5016875;28;20029;-76
2021/04/02 01:32:30;;;;;;;9.05;5.88;;;12.80;82.80;;;;;;5023210;28;20068;-75
2021/04/02 01:35:18;;;;;;;20.75;7.93;;;12.80;83.10;;;;;;5021267;28;20599;-75
2021/04/02 01:38:07;;;;;;;14.57;7.30;;;12.70;83.20;;;;;;5033164;28;20857;-77
2021/04/02 01:40:35;;;;;;;12.75;6.38;;;12.70;83.50;;;;;;5029976;28;20025;-75
2021/04/02 01:43:12;;;;;;;10.85;6.20;;;12.60;83.80;;;;;;5032342;28;20033;-77
2021/04/02 01:45:40;;;;;;;13.45;6.97;;;12.60;84.00;;;;;;5023582;28;20207;-76
2021/04/02 01:48:07;;;;;;;12.02;6.22;;;12.50;84.30;;;;;;5038440;28;20108;-76
2021/04/02 01:50:37;;;;;;;9.68;5.80;;;12.50;84.20;;;;;;5019113;28;20056;-76
2021/04/02 01:53:08;;;;;;;10.63;6.10;;;12.50;84.40;;;;;;5023117;28;20104;-74
2021/04/02 01:55:35;;;;;;;10.82;6.03;;;12.50;84.80;;;;;;5019382;28;20040;-74
2021/04/02 01:58:04;;;;;;;13.45;6.80;;;12.40;84.90;;;;;;5022254;28;20110;-76
2021/04/02 02:00:36;;;;;;;10.43;5.57;;;12.30;84.90;;;;;;5020656;28;20033;-76
2021/04/02 02:03:02;;;;;;;11.55;6.38;;;12.40;84.50;;;;;;5035578;28;20033;-76
2021/04/02 02:05:29;;;;;;;12.90;5.57;;;12.30;84.90;;;;;;5021296;28;20043;-75
2021/04/02 02:07:58;;;;;;;9.52;5.65;;;12.20;84.70;;;;;;5018594;28;20025;-75
2021/04/02 02:10:24;;;;;;;10.80;5.47;;;12.20;84.80;;;;;;5020524;28;20047;-76
2021/04/02 02:12:52;;;;;;;14.20;5.45;;;12.10;84.40;;;;;;5020037;28;20421;-77
2021/04/02 02:15:18;;;;;;;11.40;5.07;;;12.10;84.20;;;;;;5021992;28;20226;-76
2021/04/02 02:17:48;;;;;;;9.88;5.18;;;12.00;84.10;;;;;;5020065;28;20045;-76
2021/04/02 02:20:15;;;;;;;11.52;5.10;;;11.90;84.20;;;;;;5019638;28;20041;-75
2021/04/02 02:22:42;;;;;;;9.48;5.03;;;11.80;83.80;;;;;;5022975;28;20250;-76
2021/04/02 02:25:10;;;;;;;10.55;5.45;;;11.80;83.90;;;;;;5020197;28;20111;-75
2021/04/02 02:27:37;;;;;;;12.32;5.03;;;11.70;83.40;;;;;;5033286;28;20395;-75
2021/04/02 02:30:25;;;;;;;8.27;4.82;;;11.70;83.80;;;;;;5023148;28;20025;-75
2021/04/02 02:32:52;;;;;;;10.00;4.90;;;11.70;84.30;;;;;;5018414;28;20026;-75
2021/04/02 02:35:18;;;;;;;11.82;4.85;;;11.60;84.00;;;;;;5021160;28;20186;-77
2021/04/02 02:37:44;;;;;;;10.02;4.75;;;11.60;83.90;;;;;;5022006;28;20622;-76
2021/04/02 02:40:32;;;;;;;13.85;5.00;;;11.50;84.10;;;;;;5018737;28;20137;-76
2021/04/02 02:42:59;;;;;;;10.63;5.20;;;11.50;84.40;;;;;;5024249;28;20041;-75
2021/04/02 02:45:29;;;;;;;10.35;4.75;;;11.40;84.60;;;;;;5016977;28;20032;-75
2021/04/02 02:47:55;;;;;;;7.10;4.28;;;11.30;84.70;;;;;;5015311;28;20022;-75
2021/04/02 02:50:29;;;;;;;11.13;4.70;;;11.30;84.80;;;;;;5036523;28;20028;-75
2021/04/02 02:52:56;;;;;;;9.32;4.32;;;11.20;84.80;;;;;;5021861;28;20025;-75
2021/04/02 02:55:24;;;;;;;10.48;5.28;;;11.30;85.00;;;;;;5020397;28;20103;-77
2021/04/02 02:57:52;;;;;;;12.32;4.40;;;11.30;84.70;;;;;;5016385;28;20492;-75
2021/04/02 03:00:23;;;;;;;9.90;5.00;;;11.20;84.70;;;;;;5016494;28;20141;-77
2021/04/02 03:02:50;;;;;;;10.65;4.55;;;11.20;84.50;;;;;;5031717;28;20052;-76
2021/04/02 03:05:19;;;;;;;12.45;5.00;;;11.20;84.30;;;;;;5019701;28;20041;-76
2021/04/02 03:07:55;;;;;;;8.43;4.00;;;11.10;84.50;;;;;;5004706;28;20499;-75
2021/04/02 03:10:21;;;;;;;7.70;4.20;;;11.10;84.50;;;;;;5032099;28;20040;-76
2021/04/02 03:12:48;;;;;;;9.65;4.68;;;11.00;84.70;;;;;;5020352;28;20060;-75
2021/04/02 03:15:18;;;;;;;10.18;4.45;;;10.90;84.70;;;;;;5021752;28;20025;-75
2021/04/02 03:17:50;;;;;;;9.63;4.25;;;10.90;85.40;;;;;;5014511;28;20061;-75
2021/04/02 03:20:18;;;;;;;14.75;5.07;;;10.80;85.50;;;;;;5018848;28;20029;-75
2021/04/02 03:22:45;;;;;;;10.27;4.10;;;10.70;85.90;;;;;;5018535;28;20055;-76
2021/04/02 03:25:14;;;;;;;11.70;4.55;;;10.80;84.80;;;;;;5022332;28;20029;-76
2021/04/02 03:27:41;;;;;;;10.82;4.05;;;12.90;86.50;;;;;;5018233;28;20041;-76
2021/04/02 03:30:08;;;;;;;11.50;4.78;;;10.70;86.10;;;;;;5021600;28;20484;-77
2021/04/02 03:32:36;;;;;;;12.95;4.55;;;10.70;85.40;;;;;;5018584;28;20052;-75
2021/04/02 03:35:03;;;;;;;10.38;4.53;;;10.60;86.00;;;;;;5020882;28;20068;-75
2021/04/02 03:37:34;;;;;;;10.10;4.50;;;10.50;86.70;;;;;;5019442;28;20079;-76
2021/04/02 03:40:04;;;;;;;10.13;4.22;;;10.50;86.00;;;;;;5016117;28;20079;-75
2021/04/02 03:42:31;;;;;;;10.93;4.70;;;10.50;86.00;;;;;;5020646;28;20360;-75
2021/04/02 03:44:59;;;;;;;9.05;3.97;;;10.40;86.20;;;;;;5014361;28;20034;-77
2021/04/02 03:47:26;;;;;;;8.05;3.88;;;10.40;85.60;;;;;;5019589;28;20120;-75
2021/04/02 03:49:56;;;;;;;10.50;4.07;;;10.30;85.50;;;;;;5021538;28;22453;-74
2021/04/02 03:52:32;;;;;;;16.03;4.37;;;10.20;85.90;;;;;;5023330;28;20514;-76
2021/04/02 03:54:59;;;;;;;8.88;3.78;;;10.20;85.70;;;;;;5013516;28;20280;-76
2021/04/02 03:57:29;;;;;;;9.18;3.83;;;10.10;85.70;;;;;;5022238;28;20029;-74
2021/04/02 03:59:58;;;;;;;9.77;3.95;;;10.10;85.40;;;;;;5020777;28;20063;-75
2021/04/02 04:02:29;;;;;;;12.75;3.80;;;10.10;85.10;;;;;;5023753;28;20045;-76
2021/04/02 04:05:00;;;;;;;9.82;3.90;;;10.00;85.10;;;;;;5020041;28;20423;-75
2021/04/02 04:07:26;;;;;;;;;;;9.90;86.00;;;;;;5018798;28;20456;-76
2021/04/02 04:09:53;;;;;;;11.00;3.97;;;9.80;86.20;;;;;;5021452;28;19918;-75
2021/04/02 04:12:23;;;;;;;15.80;4.32;;;9.80;86.00;;;;;;5019952;28;20029;-77
2021/04/02 04:14:52;;;;;;;10.52;3.55;;;9.70;86.30;;;;;;5033516;28;20021;-76
2021/04/02 04:17:22;;;;;;;10.38;4.10;;;9.70;86.10;;;;;;5019825;28;20487;-76
2021/04/02 04:19:49;;;;;;;9.50;3.42;;;9.70;86.10;;;;;;5019232;28;20037;-76
2021/04/02 04:22:16;;;;;;;7.30;3.38;;;9.70;85.40;;;;;;5021663;28;20034;-76
2021/04/02 04:24:46;;;;;;;13.23;3.58;;;9.60;85.20;;;;;;5021735;28;20029;-76
2021/04/02 04:27:13;;;;;;;9.23;3.78;;;9.60;85.50;;;;;;5022474;28;20049;-77
2021/04/02 04:29:46;;;;;;;13.82;4.72;;;9.50;85.30;;;;;;5021744;28;20095;-76
2021/04/02 04:32:16;;;;;;;11.20;3.22;;;9.50;84.40;;;;;;5016763;28;20040;-77
2021/04/02 04:34:44;;;;;;;10.18;3.45;;;9.50;85.00;;;;;;5020289;28;20025;-76
2021/04/02 04:37:14;;;;;;;7.88;3.30;;;9.50;85.20;;;;;;5017025;28;20038;-76
2021/04/02 04:39:43;;;;;;;10.63;3.30;;;9.50;84.50;;;;;;5016208;28;20032;-75
2021/04/02 04:42:15;;;;;;;11.13;3.00;;;9.50;84.90;;;;;;5036482;28;20631;-76
2021/04/02 04:44:42;;;;;;;13.15;3.67;;;9.30;84.70;;;;;;5021565;28;20080;-76
2021/04/02 04:47:07;;;;;;;7.63;3.63;;;9.20;84.50;;;;;;5019329;28;20036;-75
2021/04/02 04:49:34;;;;;;;10.18;4.40;;;9.20;84.70;;;;;;5021447;28;20038;-75
2021/04/02 04:52:01;;;;;;;7.90;3.22;;;9.20;84.60;;;;;;5019657;28;20034;-76
2021/04/02 04:54:29;;;;;;;8.02;3.20;;;8.90;84.50;;;;;;5021485;28;20511;-75
2021/04/02 04:56:58;;;;;;;13.85;3.63;;;9.20;84.30;;;;;;5023066;28;20032;-76
2021/04/02 04:59:24;;;;;;;13.13;3.65;;;9.10;84.20;;;;;;5017861;28;20033;-76
2021/04/02 05:01:53;;;;;;;11.70;3.60;;;9.10;83.80;;;;;;5023130;28;20033;-76
2021/04/02 05:04:20;;;;;;;9.50;3.30;;;9.20;83.00;;;;;;5024060;28;20067;-74
2021/04/02 05:06:48;;;;;;;10.45;4.18;;;9.20;82.70;;;;;;5021641;28;20029;-75
2021/04/02 05:09:15;;;;;;;7.85;3.05;;;9.20;82.10;;;;;;5037801;28;20025;-75
2021/04/02 05:11:43;;;;;;;10.25;3.30;;;9.10;82.20;;;;;;5024279;28;20029;-74
2021/04/02 05:14:11;;;;;;;13.85;3.80;;;9.20;81.90;;;;;;5023211;28;20497;-75
2021/04/02 05:16:40;;;;;;;8.40;3.38;;;9.20;81.50;;;;;;5021900;28;20494;-75
2021/04/02 05:19:08;;;;;;;9.88;3.45;;;9.10;81.90;;;;;;5023802;28;20132;-76
2021/04/02 05:21:34;;;;;;;9.32;3.60;;;9.20;81.40;;;;;;5021174;28;20026;-77
2021/04/02 05:24:00;;;;;;;7.97;3.67;;;9.20;81.00;;;;;;5024723;28;20103;-76
2021/04/02 05:26:26;;;;;;;10.95;3.67;;;9.20;81.30;;;;;;5034083;28;20026;-76
2021/04/02 05:28:52;;;;;;;7.90;4.07;;;9.20;81.40;;;;;;5025116;28;20029;-76
2021/04/02 05:31:18;;;;;;;9.85;4.00;;;9.10;81.50;;;;;;5023771;28;20480;-76
2021/04/02 05:33:44;;;;;;;12.85;3.75;;;9.70;82.20;;;;;;5024409;28;20143;-75
2021/04/02 05:36:09;;;;;;;8.48;4.10;;;8.90;82.20;;;;;;5018654;28;20036;-75
2021/04/02 05:38:35;;;;;;;8.80;4.10;;;8.90;82.20;;;;;;5021426;28;20141;-77
2021/04/02 05:41:06;;;;;;;10.75;4.00;;;8.80;83.10;;;;;;5018883;28;20447;-75
2021/04/02 05:43:46;;;;;;;11.50;4.40;;;8.80;83.80;;;;;;5020320;28;20365;-75
2021/04/02 05:46:14;;;;;;;8.98;4.00;;;8.70;83.00;;;;;;5020418;28;20030;-76
2021/04/02 05:48:42;;;;;;;9.32;4.18;;;8.70;83.40;;;;;;5035453;28;20026;-75
2021/04/02 05:51:10;;;;;;;11.75;4.70;;;8.80;82.80;;;;;;5024661;28;20838;-77
2021/04/02 05:53:37;;;;;;;8.40;4.63;;;8.90;82.80;;;;;;5024083;28;20030;-77
2021/04/02 05:56:04;;;;;;;9.10;4.50;;;8.80;82.80;;;;;;5025729;28;20033;-76
2021/04/02 05:58:30;;;;;;;9.18;4.25;;;8.70;83.20;;;;;;5026217;28;20029;-75
2021/04/02 06:00:57;;;;;;;9.98;4.32;;;8.70;83.90;;;;;;5038692;28;20491;-77
2021/04/02 06:03:24;;;;;;;9.93;4.80;;;8.70;83.20;;;;;;5037553;28;20036;-74
2021/04/02 06:05:50;;;;;;;8.23;4.35;;;8.80;83.00;;;;;;5026108;28;20032;-75
2021/04/02 06:08:18;;;;;;;10.02;4.40;;;8.90;82.40;;;;;;5019527;28;20022;-76
2021/04/02 06:10:45;;;;;;;9.07;4.20;;;8.80;82.60;;;;;;5018183;28;20455;-75
2021/04/02 06:13:11;;;;;;;8.95;4.53;;;8.70;83.00;;;;;;5031308;28;20081;-75
2021/04/02 06:15:37;;;;;;;10.90;4.88;;;8.60;83.90;;;;;;5019929;28;20037;-75
2021/04/02 06:18:10;;;;;;;11.95;5.40;;;8.60;84.10;;;;;;5017714;28;20146;-77
2021/04/02 06:20:40;;;;;;;12.32;4.97;;;8.60;84.30;;;;;;5020896;28;20120;-74
2021/04/02 06:23:19;;;;;;;8.68;4.75;;;8.70;84.20;;;;;;5017542;28;20052;-76
2021/04/02 06:26:02;;;;;;;8.38;4.90;;;8.70;83.90;;;;;;5017340;28;20389;-75
2021/04/02 06:28:33;;;;;;;10.63;5.13;;;8.80;83.10;;;;;;5019122;28;20033;-76
2021/04/02 06:31:31;;;;;;;12.32;5.22;;;8.80;82.80;;;;;;5016424;28;20033;-77
2021/04/02 06:33:56;;;;;;;11.32;4.78;;;8.80;83.00;;;;;;5022661;28;20091;-77
2021/04/02 06:36:28;;;;;;;10.07;5.10;;;8.80;82.70;;;;;;5020223;28;20396;-75
2021/04/02 06:39:05;;;;;;;10.32;5.40;;;8.90;82.50;;;;;;5019413;28;20120;-76
2021/04/02 06:41:33;;;;;;;10.80;5.15;;;8.90;82.10;;;;;;5015965;28;20037;-77
2021/04/02 06:44:01;;;;;;;8.35;5.00;;;10.40;82.70;;;;;;5018267;28;20021;-76
2021/04/02 06:46:30;;;;;;;12.68;5.05;;;9.20;80.80;;;;;;5020068;28;20017;-76
2021/04/02 06:49:10;;;;;;;7.50;4.73;;;9.30;80.20;;;;;;5033829;28;20026;-74
2021/04/02 06:51:38;;;;;;;9.63;5.18;;;9.50;79.60;;;;;;5020023;28;20080;-75
2021/04/02 06:54:06;;;;;;;7.93;5.38;;;9.70;78.30;;;;;;5017916;28;20041;-75
2021/04/02 06:56:33;;;;;;;11.25;5.57;;;9.70;77.80;;;;;;5032628;28;20128;-75
2021/04/02 06:59:01;;;;;;;8.85;5.68;;;9.60;78.40;;;;;;5033952;28;20546;-74
2021/04/02 07:01:31;;;;;;;10.85;5.38;;;9.50;79.00;;;;;;5019275;28;20053;-76
2021/04/02 07:03:58;;;;;;;;;;;9.60;78.90;;;;;;5033145;28;20442;-75
2021/04/02 07:06:25;;;;;;;9.98;5.55;;;9.70;78.00;;;;;;5018886;28;19936;-75
2021/04/02 07:08:52;;;;;;;7.82;5.60;;;9.90;77.80;;;;;;5021203;28;20032;-74
2021/04/02 07:11:18;;;;;;;9.85;5.65;;;10.00;77.70;;;;;;5015679;28;20052;-75
2021/04/02 07:13:52;;;;;;;10.82;5.50;;;10.20;76.40;;;;;;5018635;28;20137;-74
2021/04/02 07:16:22;;;;;;;7.82;5.28;;;10.30;75.20;;;;;;5013956;28;20037;-76
2021/04/02 07:18:48;;;;;;;7.05;4.95;;;10.40;74.70;;;;;;5015141;28;20076;-76
2021/04/02 07:21:16;;;;;;;8.68;5.78;;;10.50;74.00;;;;;;5030570;28;20042;-77
2021/04/02 07:23:42;;;;;;;10.10;5.53;;;10.50;73.70;;;;;;5015678;28;20029;-75
2021/04/02 07:26:08;;;;;;;9.23;5.75;;;10.50;73.80;;;;;;5012864;28;20637;-77
2021/04/02 07:28:36;;;;;;;12.55;5.68;;;10.40;73.50;;;;;;5013071;28;20394;-80
2021/04/02 07:31:05;;;;;;;8.43;5.68;;;10.40;73.90;;;;;;5011500;28;20018;-77
2021/04/02 07:33:32;;;;;;;9.48;5.88;;;10.30;73.80;;;;;;5020575;28;20102;-76
2021/04/02 07:36:01;;;;;;;8.95;5.85;;;10.40;73.90;;;;;;5016327;28;20440;-79
2021/04/02 07:38:38;;;;;;;7.57;5.70;;;10.50;72.80;;;;;;5009932;28;20041;-79
2021/04/02 07:41:12;;;;;;;11.13;6.22;;;10.60;72.20;;;;;;5014057;28;20027;-76
2021/04/02 07:43:58;;;;;;;8.43;5.53;;;10.50;72.00;;;;;;5011417;28;20505;-76
2021/04/02 07:46:27;;;;;;;8.82;5.80;;;10.50;72.50;;;;;;5011754;28;20045;-76
2021/04/02 07:49:11;;;;;;;9.57;5.97;;;10.40;72.30;;;;;;5018379;28;20033;-75
2021/04/02 07:51:50;;;;;;;12.15;6.40;;;10.50;72.10;;;;;;5025702;28;20163;-78
2021/04/02 07:54:32;;;;;;;8.63;5.88;;;10.70;71.70;;;;;;5013960;28;20025;-78
2021/04/02 07:57:23;;;;;;;8.02;5.85;;;10.90;70.90;;;;;;5012106;28;20041;-76
2021/04/02 07:59:48;;;;;;;8.43;5.60;;;9.70;69.60;;;;;;5011943;28;20107;-76
2021/04/02 08:02:28;;;;;;;8.13;5.75;;;11.00;70.00;;;;;;5015490;28;20487;-76
2021/04/02 08:04:56;;;;;;;7.90;5.60;;;10.90;69.60;;;;;;5013787;28;20055;-76
2021/04/02 08:07:40;;;;;;;7.32;5.63;;;12.50;70.10;;;;;;5012227;28;20033;-79
2021/04/02 08:10:11;;;;;;;8.35;5.82;;;9.80;67.80;;;;;;5012905;28;20480;-78
2021/04/02 08:12:37;;;;;;;7.57;5.80;;;11.50;67.50;;;;;;5015633;28;20021;-78
2021/04/02 08:15:11;;;;;;;6.80;5.20;;;11.60;66.80;;;;;;5014338;28;20116;-79
2021/04/02 08:17:38;;;;;;;9.30;5.78;;;11.70;64.20;;;;;;5015856;28;20116;-78
2021/04/02 08:20:08;;;;;;;6.47;5.63;;;11.70;64.60;;;;;;5016214;28;20061;-78
2021/04/02 08:22:34;;;;;;;8.93;5.70;;;11.70;65.00;;;;;;5014652;28;20034;-76
2021/04/02 08:25:05;;;;;;;7.18;5.65;;;11.80;65.00;;;;;;5016500;28;20048;-79
2021/04/02 08:27:32;;;;;;;6.90;5.40;;;11.70;64.40;;;;;;5014979;28;20480;-76
2021/04/02 08:30:03;;;;;;;9.55;5.80;;;11.60;64.70;;;;;;4999029;28;20034;-77
2021/04/02 08:32:33;;;;;;;9.00;5.95;;;11.60;64.80;;;;;;5013207;28;20207;-78
2021/04/02 08:34:59;;;;;;;7.50;5.55;;;11.50;64.90;;;;;;5011562;28;20395;-75
2021/04/02 08:37:26;;;;;;;8.00;5.28;;;11.60;64.00;;;;;;5024375;28;20500;-75
2021/04/02 08:39:53;;;;;;;6.13;4.95;;;11.60;64.40;;;;;;5013791;28;20423;-77
2021/04/02 08:42:21;;;;;;;8.10;5.40;;;11.90;64.00;;;;;;5024316;28;20643;-77
2021/04/02 08:44:47;;;;;;;7.50;5.72;;;12.00;63.60;;;;;;5007918;28;20484;-76
2021/04/02 08:47:15;;;;;;;11.52;5.78;;;12.00;62.60;;;;;;5006970;28;20054;-77
2021/04/02 08:49:43;;;;;;;6.55;5.13;;;12.20;62.90;;;;;;5015016;28;20029;-77
2021/04/02 08:52:15;;;;;;;6.78;4.82;;;12.30;62.20;;;;;;5016757;28;20068;-78
2021/04/02 08:54:45;;;;;;;9.48;5.07;;;13.30;61.70;;;;;;5017992;28;20029;-75
2021/04/02 08:57:12;;;;;;;7.47;5.38;;;12.80;60.20;;;;;;5032966;28;20378;-78
2021/04/02 08:59:42;;;;;;;6.63;5.30;;;12.80;59.90;;;;;;5019573;28;20056;-76
2021/04/02 09:02:07;;;;;;;8.73;5.47;;;12.80;59.50;;;;;;5024519;28;20033;-76
2021/04/02 09:04:34;;;;;;;6.93;5.35;;;12.80;60.30;;;;;;5023918;28;20514;-77
2021/04/02 09:07:00;;;;;;;6.70;5.05;;;13.00;59.40;;;;;;5005213;28;20032;-77
2021/04/02 09:09:31;;;;;;;6.65;4.93;;;13.10;59.20;;;;;;5026365;28;20022;-76
2021/04/02 09:12:05;;;;;;;6.65;5.57;;;13.00;59.00;;;;;;5013127;28;20021;-77
2021/04/02 09:14:31;;;;;;;7.60;5.10;;;12.80;58.80;;;;;;5031571;28;20060;-76
2021/04/02 09:16:57;;;;;;;7.78;5.35;;;12.80;59.30;;;;;;5009232;28;20579;-77
2021/04/02 09:19:26;;;;;;;7.10;5.07;;;12.40;59.40;;;;;;5012326;28;20107;-75
2021/04/02 09:21:54;;;;;;;7.55;5.20;;;12.40;59.80;;;;;;5015016;28;20033;-76
2021/04/02 09:24:21;;;;;;;5.93;4.97;;;12.40;59.80;;;;;;5016277;28;20036;-77
2021/04/02 09:26:48;;;;;;;6.57;4.95;;;13.10;59.60;;;;;;5021061;28;20037;-77
2021/04/02 09:29:15;;;;;;;8.20;5.22;;;12.40;58.90;;;;;;5021216;28;20040;-76
2021/04/02 09:31:43;;;;;;;7.28;5.15;;;12.60;58.70;;;;;;5021119;28;20036;-77
2021/04/02 09:34:13;;;;;;;8.60;5.00;;;12.70;58.90;;;;;;5018883;28;20435;-78
2021/04/02 09:36:41;;;;;;;6.55;5.07;;;13.90;58.60;;;;;;5017682;28;20029;-78
2021/04/02 09:39:21;;;;;;;6.45;4.80;;;12.80;57.70;;;;;;5019146;28;20343;-78
2021/04/02 09:41:52;;;;;;;8.80;5.00;;;13.00;57.00;;;;;;5019116;28;20033;-75
2021/04/02 09:44:20;;;;;;;8.63;5.05;;;13.00;57.00;;;;;;5022034;28;20030;-78
2021/04/02 09:46:48;;;;;;;9.90;5.35;;;13.10;56.10;;;;;;5025038;28;20034;-76
2021/04/02 09:49:18;;;;;;;6.00;4.68;;;13.00;55.70;;;;;;5015967;28;20104;-75
2021/04/02 09:51:53;;;;;;;6.70;4.72;;;13.00;56.50;;;;;;5014544;28;20033;-79
2021/04/02 09:54:20;;;;;;;7.88;5.30;;;13.10;56.00;;;;;;5022162;28;20030;-79
2021/04/02 09:56:47;;;;;;;6.78;4.70;;;13.20;56.40;;;;;;5017943;28;20411;-81
2021/04/02 09:59:16;;;;;;;7.90;4.63;;;13.30;55.50;;;;;;5018968;28;20037;-79
2021/04/02 10:01:43;;;;;;;5.70;4.72;;;13.30;55.90;;;;;;5021360;28;20522;-81
2021/04/02 10:04:10;;;;;;;5.50;4.75;;;12.60;55.10;;;;;;5021867;28;20041;-78
2021/04/02 10:06:37;;;;;;;8.85;5.32;;;13.40;55.50;;;;;;5026779;28;20501;-77
2021/04/02 10:09:05;;;;;;;10.88;5.50;;;13.60;54.90;;;;;;5024244;28;20036;-78
2021/04/02 10:11:32;;;;;;;6.68;5.10;;;13.70;54.70;;;;;;5024776;28;20018;-79
2021/04/02 10:13:57;;;;;;;9.15;5.05;;;13.60;55.30;;;;;;5030761;28;20487;-78
2021/04/02 10:16:24;;;;;;;7.53;5.38;;;13.80;54.20;;;;;;5023496;28;20029;-78
2021/04/02 10:18:50;;;;;;;6.40;4.88;;;13.80;53.90;;;;;;5016784;28;20033;-77
2021/04/02 10:21:41;;;;;;;5.70;5.03;;;13.80;54.00;;;;;;5026266;28;20036;-77
2021/04/02 10:24:08;;;;;;;7.32;4.60;;;13.80;53.40;;;;;;5025678;28;20025;-78
2021/04/02 10:26:34;;;;;;;6.03;5.00;;;13.80;53.90;;;;;;5024172;28;20033;-79
2021/04/02 10:28:59;;;;;;;8.40;5.38;;;13.60;53.80;;;;;;5027131;28;20071;-78
2021/04/02 10:31:26;;;;;;;7.07;4.80;;;;;;;;;;5027695;28;20456;-77
2021/04/02 10:33:51;;;;;;;10.02;6.38;;;13.70;53.30;;;;;;5031417;28;20095;-79
2021/04/02 10:36:17;;;;;;;7.05;4.60;;;;;;;;;;5030304;28;20033;-78
2021/04/02 10:38:43;;;;;;;7.90;5.78;;;13.50;55.40;;;;;;5037337;28;20029;-78
2021/04/02 10:41:09;;;;;;;11.27;5.28;;;;;;;;;;5034216;28;20496;-78
2021/04/02 10:43:35;;;;;;;7.30;4.85;;;14.00;53.80;;;;;;5028739;28;20028;-80
2021/04/02 10:46:02;;;;;;;7.03;4.57;;;;;;;;;;5034808;28;20018;-78
2021/04/02 10:48:27;;;;;;;7.32;4.97;;;14.20;51.90;;;;;;5039628;28;20028;-79
2021/04/02 10:50:54;;;;;;;7.57;5.07;;;;;;;;;;5022861;28;20060;-75
2021/04/02 10:53:30;;;;;;;;;;;;;;;;;;;;;
2021/04/02 10:56:00;;;;;;;7.45;5.30;;;;;;;;;;5031381;28;20532;-79
2021/04/02 10:58:27;;;;;;;8.18;5.13;;;14.60;51.50;;;;;;5025082;28;20017;-79
2021/04/02 11:00:53;;;;;;;10.52;5.53;;;;;;;;;;5023592;28;20235;-78
2021/04/02 11:03:18;;;;;;;7.57;5.47;;;14.60;51.40;;;;;;5022531;28;20103;-80
2021/04/02 11:05:44;;;;;;;7.85;5.55;;;14.50;54.30;;;;;;5028103;28;20687;-79
2021/04/02 11:08:10;;;;;;;7.40;5.38;;;14.20;54.10;;;;;;5025647;28;20500;-76
2021/04/02 11:10:36;;;;;;;6.82;5.03;;;17.30;54.10;;;;;;5018385;28;20029;-76
2021/04/02 11:13:01;;;;;;;6.32;4.85;;;14.30;52.70;;;;;;5026652;28;20030;-76
2021/04/02 11:15:27;;;;;;;6.57;5.10;;;16.30;53.50;;;;;;5019038;28;20021;-78
2021/04/02 11:17:56;;;;;;;9.52;5.57;;;14.50;52.40;;;;;;5021976;28;20067;-78
2021/04/02 11:20:28;;;;;;;6.43;5.25;;;14.80;52.10;;;;;;5035106;28;20056;-80
2021/04/02 11:22:55;;;;;;;8.13;5.00;;;14.80;51.80;;;;;;5020784;28;20048;-77
2021/04/02 11:25:21;;;;;;;8.52;5.72;;;14.70;51.80;;;;;;5023315;28;20029;-79
2021/04/02 11:27:47;;;;;;;8.32;5.65;;;14.80;51.80;;;;;;5019557;28;20520;-76
2021/04/02 11:30:17;;;;;;;8.65;5.18;;;14.80;51.80;;;;;;5024988;28;20029;-78
2021/04/02 11:32:42;;;;;;;7.63;5.50;;;14.90;51.30;;;;;;5019838;28;20045;-78
2021/04/02 11:35:09;;;;;;;7.38;5.55;;;15.00;51.10;;;;;;5020101;28;20501;-77
2021/04/02 11:37:35;;;;;;;8.02;5.82;;;;;;;;;;5033137;28;20116;-76
2021/04/02 11:40:05;;;;;;;5.85;4.97;;;15.20;50.30;;;;;;5025327;28;20391;-77
2021/04/02 11:42:31;;;;;;;7.65;5.20;;;15.20;50.20;;;;;;5026931;28;20440;-79
2021/04/02 11:44:57;;;;;;;6.55;5.50;;;15.30;50.00;;;;;;5029200;28;20033;-77
2021/04/02 11:47:22;;;;;;;9.73;6.10;;;15.00;50.10;;;;;;5026824;28;20029;-77
2021/04/02 11:49:48;;;;;;;7.47;5.00;;;15.20;50.10;;;;;;5029351;28;20030;-76
2021/04/02 11:52:13;;;;;;;7.93;5.25;;;14.90;50.20;;;;;;5030104;28;20022;-77
2021/04/02 11:54:42;;;;;;;7.13;5.43;;;14.90;50.60;;;;;;5030773;28;20033;-78
2021/04/02 11:57:08;;;;;;;6.82;5.20;;;15.20;50.90;;;;;;5028289;28;20052;-78
2021/04/02 11:59:33;;;;;;;6.20;5.30;;;15.10;50.00;;;;;;5022616;28;20025;-77
2021/04/02 12:01:59;;;;;;;7.00;5.30;;;15.40;48.90;;;;;;5020456;28;20399;-80
2021/04/02 12:04:25;;;;;;;7.40;4.97;;;15.30;49.00;;;;;;5024592;28;20044;-78
2021/04/02 12:06:50;;;;;;;6.95;5.45;;;15.40;48.70;;;;;;5026988;28;20026;-77
2021/04/02 12:09:16;;;;;;;7.40;5.07;;;15.20;48.40;;;;;;5026097;28;20029;-77
2021/04/02 12:11:42;;;;;;;7.47;5.10;;;15.20;49.40;;;;;;5028504;28;20025;-78
2021/04/02 12:14:08;;;;;;;7.45;5.25;;;15.40;49.20;;;;;;5022216;28;20106;-78
2021/04/02 12:16:35;;;;;;;6.60;4.97;;;15.50;49.60;;;;;;5024494;28;20036;-76
2021/04/02 12:19:03;;;;;;;8.88;5.22;;;15.60;48.80;;;;;;5024502;28;20029;-78
2021/04/02 12:21:28;;;;;;;6.20;4.80;;;15.60;48.80;;;;;;5022220;28;20492;-78
2021/04/02 12:23:54;;;;;;;9.45;5.50;;;15.90;49.40;;;;;;5027807;28;20021;-77
2021/04/02 12:26:19;;;;;;;6.97;4.82;;;15.80;48.30;;;;;;5023073;28;20033;-78
2021/04/02 12:28:48;;;;;;;6.75;5.30;;;15.90;48.60;;;;;;5020148;28;20040;-79
2021/04/02 12:31:14;;;;;;;7.93;4.95;;;16.20;47.80;;;;;;5019586;28;20357;-77
2021/04/02 12:33:40;;;;;;;7.03;5.45;;;16.50;47.90;;;;;;5024813;28;20099;-76
2021/04/02 12:36:09;;;;;;;7.03;5.68;;;16.40;47.60;;;;;;5024543;28;20032;-78
2021/04/02 12:38:35;;;;;;;7.47;5.43;;;16.30;47.70;;;;;;5024181;28;20036;-77
2021/04/02 12:41:05;;;;;;;7.43;5.00;;;16.20;47.70;;;;;;5023158;28;20022;-77
2021/04/02 12:43:33;;;;;;;6.10;4.80;;;16.20;48.00;;;;;;5019726;28;20087;-77
2021/04/02 12:46:01;;;;;;;7.05;5.43;;;16.20;48.40;;;;;;5023512;28;20477;-77
2021/04/02 12:48:28;;;;;;;7.25;5.55;;;16.20;47.70;;;;;;5020704;28;20072;-77
2021/04/02 12:50:59;;;;;;;7.25;5.60;;;16.70;48.40;;;;;;5023436;28;20029;-78
2021/04/02 12:53:25;;;;;;;8.48;5.63;;;16.20;48.10;;;;;;5024186;28;20035;-78
2021/04/02 12:55:51;;;;;;;9.82;5.70;;;16.40;48.30;;;;;;5024182;28;20079;-78
2021/04/02 12:58:20;;;;;;;9.27;5.50;;;16.30;48.50;;;;;;5024029;28;20021;-77
2021/04/02 13:00:46;;;;;;;7.10;5.80;;;16.40;48.70;;;;;;5002131;28;20060;-77